createdAt,value
2018-09-08T00:00:01.089Z,149095.28
2018-09-08T00:02:33.750Z,149100.27
2018-09-08T00:05:04.064Z,149087.81
2018-09-08T00:07:38.298Z,149064.13
2018-09-08T00:10:12.417Z,149060.39
2018-09-08T00:12:42.806Z,149056.66
2018-09-08T00:15:18.775Z,149060.39
2018-09-08T00:17:54.975Z,149072.84
2018-09-08T00:20:29.991Z,149057.91
2018-09-08T00:23:05.213Z,149055.36
2018-09-08T00:25:40.196Z,149029.19
2018-09-08T00:28:29.121Z,149016.73
2018-09-08T00:31:01.039Z,149011.75
2018-09-08T00:33:31.448Z,149024.20
2018-09-08T00:36:01.753Z,149021.72
2018-09-08T00:38:32.914Z,149014.23
2018-09-08T00:41:04.377Z,149011.75
2018-09-08T00:43:34.885Z,148999.23
2018-09-08T00:46:06.210Z,148964.36
2018-09-08T00:48:36.864Z,148951.84
2018-09-08T00:51:07.211Z,148924.44
2018-09-08T00:53:37.425Z,148896.94
2018-09-08T00:56:07.740Z,148850.81
2018-09-08T00:58:37.875Z,148817.13
2018-09-08T01:01:07.843Z,148813.41
2018-09-08T01:03:38.362Z,148819.67
2018-09-08T01:06:08.910Z,148807.17
2018-09-08T01:08:39.958Z,148788.50
2018-09-08T01:11:10.495Z,148751.09
2018-09-08T01:13:41.404Z,148749.84
2018-09-08T01:16:13.289Z,148738.64
2018-09-08T01:18:43.775Z,148729.92
2018-09-08T01:21:13.927Z,148751.09
2018-09-08T01:23:48.175Z,148769.77
2018-09-08T01:26:20.855Z,148778.53
2018-09-08T01:28:51.889Z,148790.98
2018-09-08T01:31:22.421Z,148810.91
2018-09-08T01:33:52.857Z,148827.16
2018-09-08T01:36:24.153Z,148834.63
2018-09-08T01:38:55.081Z,148823.41
2018-09-08T01:41:25.475Z,148828.39
2018-09-08T01:43:56.103Z,148834.63
2018-09-08T01:46:28.767Z,148844.58
2018-09-08T01:48:58.993Z,148837.11
2018-09-08T01:51:28.881Z,148858.28
2018-09-08T01:53:59.032Z,148855.78
2018-09-08T01:56:29.416Z,148869.53
2018-09-08T01:58:59.570Z,148885.73
2018-09-08T02:01:29.823Z,148879.50
2018-09-08T02:04:00.152Z,148872.03
2018-09-08T02:06:30.822Z,148878.25
2018-09-08T02:09:02.035Z,148888.22
2018-09-08T02:11:33.025Z,148903.17
2018-09-08T02:14:03.953Z,148915.67
2018-09-08T02:16:35.131Z,148909.41
2018-09-08T02:19:05.674Z,148888.22
2018-09-08T02:21:36.204Z,148879.50
2018-09-08T02:24:06.535Z,148859.53
2018-09-08T02:26:36.675Z,148848.31
2018-09-08T02:29:07.102Z,148837.11
2018-09-08T02:31:37.780Z,148809.66
2018-09-08T02:34:08.942Z,148817.13
2018-09-08T02:36:39.354Z,148807.17
2018-09-08T02:39:10.621Z,148803.44
2018-09-08T02:41:40.871Z,148773.55
2018-09-08T02:44:11.304Z,148761.05
2018-09-08T02:46:43.784Z,148772.25
2018-09-08T02:49:13.878Z,148753.58
2018-09-08T02:51:41.945Z,148716.13
2018-09-08T02:54:10.851Z,148678.78
2018-09-08T02:56:38.926Z,148673.75
2018-09-08T02:59:07.257Z,148630.14
2018-09-08T03:01:36.345Z,148642.64
2018-09-08T03:04:04.458Z,148641.39
2018-09-08T03:06:32.619Z,148682.53
2018-09-08T03:09:00.911Z,148691.23
2018-09-08T03:11:29.307Z,148682.53
2018-09-08T03:13:57.616Z,148680.03
2018-09-08T03:16:25.953Z,148662.56
2018-09-08T03:18:54.918Z,148648.86
2018-09-08T03:21:23.069Z,148647.63
2018-09-08T03:23:51.387Z,148641.39
2018-09-08T03:26:19.926Z,148641.39
2018-09-08T03:28:48.921Z,148650.11
2018-09-08T03:31:16.943Z,148651.34
2018-09-08T03:33:45.122Z,148658.83
2018-09-08T03:36:13.644Z,148631.44
2018-09-08T03:38:42.782Z,148600.28
2018-09-08T03:41:11.736Z,148590.31
2018-09-08T03:43:39.882Z,148566.63
2018-09-08T03:46:08.727Z,148579.06
2018-09-08T03:48:38.058Z,148605.25
2018-09-08T03:51:06.192Z,148605.25
2018-09-08T03:53:34.246Z,148608.98
2018-09-08T03:56:03.421Z,148640.16
2018-09-08T03:58:31.672Z,148651.34
2018-09-08T04:00:59.699Z,148673.75
2018-09-08T04:03:29.700Z,148696.22
2018-09-08T04:05:59.915Z,148717.42
2018-09-08T04:08:30.729Z,148737.39
2018-09-08T04:11:01.037Z,148754.83
2018-09-08T04:13:31.356Z,148774.80
2018-09-08T04:16:01.656Z,148824.66
2018-09-08T04:18:32.173Z,148827.16
2018-09-08T04:21:02.255Z,148857.03
2018-09-08T04:23:32.376Z,148894.44
2018-09-08T04:26:02.945Z,148933.16
2018-09-08T04:28:34.506Z,149015.48
2018-09-08T04:31:05.925Z,149075.34
2018-09-08T04:33:36.816Z,149109.05
2018-09-08T04:36:07.215Z,149084.06
2018-09-08T04:38:36.908Z,149122.81
2018-09-08T04:41:06.931Z,149135.27
2018-09-08T04:43:38.035Z,149160.25
2018-09-08T04:46:09.404Z,149154.02
2018-09-08T04:48:39.675Z,149178.94
2018-09-08T04:51:09.444Z,149201.44
2018-09-08T04:53:39.148Z,149203.92
2018-09-08T04:56:09.289Z,149243.81
2018-09-08T04:58:39.492Z,149286.25
2018-09-08T05:01:09.864Z,149288.75
2018-09-08T05:03:40.039Z,149270.05
2018-09-08T05:06:10.778Z,149332.50
2018-09-08T05:08:40.898Z,149361.23
2018-09-08T05:11:11.003Z,149423.66
2018-09-08T05:13:40.998Z,149444.91
2018-09-08T05:16:12.578Z,149424.89
2018-09-08T05:18:42.852Z,149461.13
2018-09-08T05:21:14.439Z,149461.13
2018-09-08T05:23:45.584Z,149502.39
2018-09-08T05:26:15.830Z,149546.11
2018-09-08T05:28:46.038Z,149606.06
2018-09-08T05:31:17.557Z,149729.83
2018-09-08T05:33:47.782Z,149998.62
2018-09-08T05:36:18.074Z,149999.88
2018-09-08T05:38:48.222Z,150037.45
2018-09-08T05:41:18.277Z,150173.81
2018-09-08T05:43:49.025Z,150335.28
2018-09-08T05:46:19.801Z,150491.91
2018-09-08T05:48:50.107Z,150726.19
2018-09-08T05:51:20.327Z,150461.78
2018-09-08T05:53:51.346Z,150509.42
2018-09-08T05:56:21.247Z,150697.36
2018-09-08T05:58:51.671Z,150864.09
2018-09-08T06:01:22.265Z,150846.52
2018-09-08T06:03:52.847Z,150628.42
2018-09-08T06:06:23.389Z,150714.87
2018-09-08T06:08:53.771Z,151002.03
2018-09-08T06:11:24.019Z,151102.41
2018-09-08T06:13:56.199Z,151083.52
2018-09-08T06:16:26.423Z,150934.27
2018-09-08T06:18:56.616Z,150914.22
2018-09-08T06:21:26.840Z,151595.69
2018-09-08T06:23:58.846Z,151948.77
2018-09-08T06:26:28.937Z,151176.37
2018-09-08T06:29:01.854Z,150935.52
2018-09-08T06:31:32.068Z,150668.53
2018-09-08T06:34:03.451Z,150802.66
2018-09-08T06:36:33.627Z,151321.94
2018-09-08T06:39:04.256Z,151941.23
2018-09-08T06:41:34.383Z,152367.56
2018-09-08T06:44:04.542Z,151794.19
2018-09-08T06:46:35.955Z,151485.17
2018-09-08T06:49:06.859Z,150956.91
2018-09-08T06:51:38.023Z,150692.34
2018-09-08T06:54:08.886Z,150749.97
2018-09-08T06:56:39.477Z,150959.41
2018-09-08T06:59:09.665Z,151094.83
2018-09-08T07:01:39.988Z,151055.95
2018-09-08T07:04:10.711Z,150929.25
2018-09-08T07:06:41.070Z,150835.25
2018-09-08T07:09:12.393Z,150573.28
2018-09-08T07:11:43.450Z,150569.53
2018-09-08T07:14:13.827Z,150533.23
2018-09-08T07:16:44.286Z,150604.61
2018-09-08T07:19:14.348Z,150613.36
2018-09-08T07:21:44.582Z,150565.77
2018-09-08T07:24:17.299Z,150401.70
2018-09-08T07:26:47.622Z,150302.78
2018-09-08T07:29:17.803Z,150404.20
2018-09-08T07:31:47.809Z,150441.78
2018-09-08T07:34:19.030Z,150404.20
2018-09-08T07:36:49.309Z,150300.27
2018-09-08T07:39:19.289Z,150252.72
2018-09-08T07:41:49.577Z,150245.22
2018-09-08T07:44:19.550Z,150237.67
2018-09-08T07:46:49.596Z,150384.20
2018-09-08T07:49:20.381Z,150391.70
2018-09-08T07:51:50.757Z,150506.92
2018-09-08T07:54:22.412Z,150409.22
2018-09-08T07:56:52.656Z,150491.91
2018-09-08T07:59:24.618Z,150537.00
2018-09-08T08:01:56.160Z,150707.38
2018-09-08T08:04:26.440Z,150734.95
2018-09-08T08:06:57.181Z,150836.50
2018-09-08T08:09:27.901Z,150681.09
2018-09-08T08:11:58.528Z,150802.66
2018-09-08T08:14:28.867Z,150777.56
2018-09-08T08:16:59.569Z,150709.88
2018-09-08T08:19:29.945Z,150748.72
2018-09-08T08:22:00.007Z,150839.00
2018-09-08T08:24:29.834Z,150940.53
2018-09-08T08:27:00.444Z,151128.72
2018-09-08T08:29:30.849Z,151202.73
2018-09-08T08:32:00.702Z,151212.75
2018-09-08T08:34:30.681Z,151185.14
2018-09-08T08:37:01.530Z,151167.59
2018-09-08T08:39:31.637Z,151060.97
2018-09-08T08:42:01.452Z,151072.23
2018-09-08T08:44:31.896Z,151064.72
2018-09-08T08:47:02.294Z,151103.66
2018-09-08T08:49:33.351Z,150978.19
2018-09-08T08:52:13.930Z,150988.22
2018-09-08T08:54:48.283Z,151005.80
2018-09-08T08:57:18.568Z,150889.13
2018-09-08T08:59:48.499Z,150741.22
2018-09-08T09:02:18.342Z,150724.94
2018-09-08T09:04:48.197Z,150754.98
2018-09-08T09:07:18.997Z,150703.63
2018-09-08T09:09:48.812Z,150664.77
2018-09-08T09:12:19.088Z,150585.83
2018-09-08T09:14:48.992Z,150539.50
2018-09-08T09:17:18.762Z,150379.16
2018-09-08T09:19:59.605Z,150377.91
2018-09-08T09:22:40.161Z,150265.22
2018-09-08T09:25:10.982Z,150251.47
2018-09-08T09:27:49.485Z,150376.66
2018-09-08T09:30:21.758Z,150471.80
2018-09-08T09:32:51.745Z,150434.28
2018-09-08T09:35:22.917Z,150574.58
2018-09-08T09:37:53.430Z,150806.41
2018-09-08T09:40:25.287Z,150924.25
2018-09-08T09:42:55.468Z,150984.45
2018-09-08T09:45:25.897Z,151029.59
2018-09-08T09:47:58.089Z,151003.30
2018-09-08T09:50:30.159Z,150805.16
2018-09-08T09:53:00.441Z,150757.48
2018-09-08T09:55:31.305Z,150751.22
2018-09-08T09:58:01.678Z,150756.23
2018-09-08T10:00:37.240Z,150583.34
2018-09-08T10:03:07.536Z,150612.11
2018-09-08T10:05:38.220Z,150560.77
2018-09-08T10:08:08.470Z,150539.50
2018-09-08T10:10:38.652Z,150579.58
2018-09-08T10:13:08.868Z,150579.58
2018-09-08T10:15:39.458Z,150604.61
2018-09-08T10:18:09.657Z,150634.69
2018-09-08T10:20:39.772Z,150651.00
2018-09-08T10:23:13.012Z,150704.86
2018-09-08T10:25:43.369Z,150654.75
2018-09-08T10:28:13.516Z,150577.08
2018-09-08T10:30:43.523Z,150499.41
2018-09-08T10:33:15.971Z,150552.00
2018-09-08T10:35:46.106Z,150662.27
2018-09-08T10:38:16.277Z,150691.09
2018-09-08T10:40:46.483Z,150617.13
2018-09-08T10:43:16.673Z,150521.94
2018-09-08T10:45:47.807Z,150577.08
2018-09-08T10:48:18.716Z,150620.88
2018-09-08T10:50:48.801Z,150594.59
2018-09-08T10:53:19.284Z,150597.09
2018-09-08T10:55:50.336Z,150683.59
2018-09-08T10:58:20.358Z,150726.19
2018-09-08T11:00:50.473Z,150712.38
2018-09-08T11:03:20.494Z,150711.13
2018-09-08T11:05:50.721Z,150747.47
2018-09-08T11:08:24.891Z,150635.94
2018-09-08T11:10:55.426Z,150634.69
2018-09-08T11:13:26.304Z,150663.52
2018-09-08T11:15:57.645Z,150694.86
2018-09-08T11:18:27.975Z,150777.56
2018-09-08T11:20:58.492Z,150768.80
2018-09-08T11:23:28.739Z,150742.47
2018-09-08T11:25:59.096Z,150812.72
2018-09-08T11:28:29.221Z,150805.16
2018-09-08T11:31:00.607Z,150855.28
2018-09-08T11:33:31.324Z,150775.06
2018-09-08T11:36:05.136Z,150815.22
2018-09-08T11:38:35.420Z,150817.72
2018-09-08T11:41:06.865Z,150830.23
2018-09-08T11:43:37.343Z,150818.97
2018-09-08T11:46:08.531Z,150747.47
2018-09-08T11:48:38.499Z,150782.56
2018-09-08T11:51:09.894Z,150859.09
2018-09-08T11:53:40.244Z,150912.97
2018-09-08T11:56:10.551Z,150929.25
2018-09-08T11:58:40.819Z,150866.59
2018-09-08T12:01:12.687Z,150777.56
2018-09-08T12:03:43.848Z,150810.16
2018-09-08T12:06:14.103Z,150847.77
2018-09-08T12:08:44.227Z,150840.25
2018-09-08T12:11:14.568Z,150851.53
2018-09-08T12:13:44.585Z,150886.63
2018-09-08T12:16:16.731Z,150933.02
2018-09-08T12:18:46.783Z,150862.84
2018-09-08T12:21:17.422Z,150776.31
2018-09-08T12:23:48.317Z,150739.95
2018-09-08T12:26:18.394Z,150702.36
2018-09-08T12:28:48.850Z,150727.44
2018-09-08T12:31:19.032Z,150782.56
2018-09-08T12:33:49.250Z,150835.25
2018-09-08T12:36:20.397Z,150834.00
2018-09-08T12:38:53.159Z,150797.64
2018-09-08T12:41:23.583Z,150815.22
2018-09-08T12:43:53.697Z,150821.47
2018-09-08T12:46:24.582Z,150776.31
2018-09-08T12:48:56.554Z,150732.45
2018-09-08T12:51:26.991Z,150691.09
2018-09-08T12:53:58.430Z,150676.08
2018-09-08T12:56:30.584Z,150622.17
2018-09-08T12:59:01.388Z,150618.38
2018-09-08T13:01:33.192Z,150548.25
2018-09-08T13:04:05.776Z,150489.36
2018-09-08T13:06:36.582Z,150501.92
2018-09-08T13:09:07.380Z,150474.30
2018-09-08T13:11:38.250Z,150495.66
2018-09-08T13:14:08.858Z,150386.70
2018-09-08T13:16:39.727Z,150302.78
2018-09-08T13:19:10.347Z,150324.03
2018-09-08T13:21:40.431Z,150304.03
2018-09-08T13:24:10.769Z,150215.16
2018-09-08T13:26:42.309Z,150251.47
2018-09-08T13:29:17.213Z,150306.53
2018-09-08T13:31:47.472Z,150322.78
2018-09-08T13:34:17.591Z,150241.47
2018-09-08T13:36:47.718Z,150151.31
2018-09-08T13:39:21.723Z,150172.56
2018-09-08T13:41:52.423Z,150207.66
2018-09-08T13:44:22.465Z,150227.66
2018-09-08T13:46:52.792Z,150233.91
2018-09-08T13:49:23.708Z,150271.47
2018-09-08T13:51:53.983Z,150325.28
2018-09-08T13:54:24.960Z,150345.37
2018-09-08T13:56:55.208Z,150361.64
2018-09-08T13:59:25.426Z,150250.22
2018-09-08T14:01:56.002Z,150241.47
2018-09-08T14:04:26.967Z,150228.91
2018-09-08T14:06:57.539Z,150232.66
2018-09-08T14:09:28.318Z,150252.72
2018-09-08T14:11:58.664Z,150150.06
2018-09-08T14:14:28.751Z,150118.78
2018-09-08T14:16:59.155Z,150041.20
2018-09-08T14:19:29.331Z,150038.70
2018-09-08T14:21:59.454Z,150063.75
2018-09-08T14:24:32.469Z,150084.98
2018-09-08T14:27:03.035Z,150073.75
2018-09-08T14:29:33.210Z,150091.23
2018-09-08T14:32:03.651Z,150069.98
2018-09-08T14:34:34.418Z,150060.00
2018-09-08T14:37:05.576Z,150031.20
2018-09-08T14:39:35.725Z,150036.22
2018-09-08T14:42:05.896Z,150003.63
2018-09-08T14:44:36.223Z,149956.11
2018-09-08T14:47:07.645Z,150016.22
2018-09-08T14:49:37.678Z,150048.70
2018-09-08T14:52:07.656Z,150023.72
2018-09-08T14:54:38.038Z,149948.61
2018-09-08T14:57:09.013Z,149956.11
2018-09-08T14:59:39.189Z,149908.59
2018-09-08T15:02:09.424Z,149856.09
2018-09-08T15:04:40.389Z,149818.58
2018-09-08T15:07:11.094Z,149761.03
2018-09-08T15:09:41.289Z,149784.81
2018-09-08T15:12:12.357Z,149763.53
2018-09-08T15:14:42.478Z,149729.83
2018-09-08T15:17:12.576Z,149693.58
2018-09-08T15:19:42.864Z,149698.56
2018-09-08T15:22:13.949Z,149706.06
2018-09-08T15:24:44.162Z,149693.58
2018-09-08T15:27:14.445Z,149711.05
2018-09-08T15:29:45.525Z,149737.31
2018-09-08T15:32:16.423Z,149756.03
2018-09-08T15:34:49.149Z,149776.06
2018-09-08T15:37:19.606Z,149778.56
2018-09-08T15:39:50.013Z,149793.55
2018-09-08T15:42:20.702Z,149749.80
2018-09-08T15:44:51.106Z,149768.58
2018-09-08T15:47:22.209Z,149789.81
2018-09-08T15:49:52.576Z,149773.58
2018-09-08T15:52:22.719Z,149764.78
2018-09-08T15:54:53.174Z,149762.28
2018-09-08T15:57:23.589Z,149736.06
2018-09-08T15:59:53.732Z,149728.58
2018-09-08T16:02:24.884Z,149688.58
2018-09-08T16:04:58.590Z,149702.31
2018-09-08T16:07:32.056Z,149689.83
2018-09-08T16:10:03.618Z,149666.02
2018-09-08T16:12:35.174Z,149646.05
2018-09-08T16:15:05.391Z,149649.78
2018-09-08T16:17:35.705Z,149658.53
2018-09-08T16:20:06.335Z,149631.06
2018-09-08T16:22:37.180Z,149603.56
2018-09-08T16:25:07.755Z,149594.83
2018-09-08T16:27:38.133Z,149586.09
2018-09-08T16:30:08.742Z,149583.59
2018-09-08T16:32:40.952Z,149564.81
2018-09-08T16:35:11.183Z,149542.36
2018-09-08T16:37:41.801Z,149514.86
2018-09-08T16:40:12.387Z,149507.38
2018-09-08T16:42:43.942Z,149512.38
2018-09-08T16:45:14.251Z,149469.84
2018-09-08T16:47:47.230Z,149469.84
2018-09-08T16:50:18.918Z,149457.37
2018-09-08T16:52:49.174Z,149449.89
2018-09-08T16:55:19.449Z,149451.14
2018-09-08T16:57:51.809Z,149428.64
2018-09-08T17:00:22.704Z,149441.16
2018-09-08T17:02:54.008Z,149413.66
2018-09-08T17:05:25.419Z,149401.19
2018-09-08T17:07:55.680Z,149403.69
2018-09-08T17:10:26.819Z,149381.19
2018-09-08T17:12:58.589Z,149391.22
2018-09-08T17:15:28.684Z,149402.44
2018-09-08T17:17:58.916Z,149396.20
2018-09-08T17:20:30.806Z,149404.94
2018-09-08T17:23:01.177Z,149394.95
2018-09-08T17:25:32.024Z,149394.95
2018-09-08T17:28:02.142Z,149381.19
2018-09-08T17:30:32.197Z,149372.45
2018-09-08T17:33:02.822Z,149378.69
2018-09-08T17:35:32.969Z,149383.69
2018-09-08T17:38:02.878Z,149389.97
2018-09-08T17:40:33.278Z,149399.94
2018-09-08T17:43:04.213Z,149404.94
2018-09-08T17:45:34.322Z,149396.20
2018-09-08T17:48:04.292Z,149381.19
2018-09-08T17:50:35.303Z,149396.20
2018-09-08T17:53:05.225Z,149403.69
2018-09-08T17:55:35.638Z,149406.19
2018-09-08T17:58:06.647Z,149416.16
2018-09-08T18:00:38.797Z,149417.41
2018-09-08T18:03:09.027Z,149422.41
2018-09-08T18:05:39.206Z,149429.88
2018-09-08T18:08:10.064Z,149428.64
2018-09-08T18:10:40.198Z,149427.39
2018-09-08T18:13:11.613Z,149421.16
2018-09-08T18:15:45.426Z,149428.64
2018-09-08T18:18:15.601Z,149439.91
2018-09-08T18:20:48.021Z,149453.63
2018-09-08T18:23:18.002Z,149469.84
2018-09-08T18:25:48.275Z,149464.86
2018-09-08T18:28:19.587Z,149439.91
2018-09-08T18:30:50.832Z,149416.16
2018-09-08T18:33:20.975Z,149394.95
2018-09-08T18:35:53.759Z,149371.20
2018-09-08T18:38:24.163Z,149333.75
2018-09-08T18:40:55.043Z,149308.80
2018-09-08T18:43:26.244Z,149323.77
2018-09-08T18:45:58.577Z,149315.03
2018-09-08T18:48:28.852Z,149271.30
2018-09-08T18:50:58.960Z,149241.33
2018-09-08T18:53:30.158Z,149203.92
2018-09-08T18:56:01.607Z,149210.16
2018-09-08T18:58:32.810Z,149218.88
2018-09-08T19:01:03.740Z,149210.16
2018-09-08T19:03:34.090Z,149213.89
2018-09-08T19:06:04.831Z,149192.66
2018-09-08T19:08:40.020Z,149171.47
2018-09-08T19:11:11.046Z,149140.25
2018-09-08T19:13:42.068Z,149084.06
2018-09-08T19:16:12.829Z,149066.62
2018-09-08T19:18:44.235Z,149035.42
2018-09-08T19:21:14.520Z,149016.73
2018-09-08T19:23:44.738Z,149005.47
2018-09-08T19:26:15.153Z,149001.73
2018-09-08T19:28:50.981Z,149027.94
2018-09-08T19:31:21.414Z,148996.75
2018-09-08T19:33:51.793Z,149036.67
2018-09-08T19:36:23.077Z,149044.14
2018-09-08T19:38:53.579Z,149042.89
2018-09-08T19:41:23.981Z,149041.66
2018-09-08T19:43:55.947Z,149056.66
2018-09-08T19:49:06.141Z,148996.75
2018-09-08T19:51:39.761Z,148971.83
2018-09-08T19:54:11.384Z,148959.31
2018-09-08T19:56:46.578Z,148929.42
2018-09-08T19:59:16.631Z,148904.42
2018-09-08T20:01:47.282Z,148928.19
2018-09-08T20:04:18.020Z,148945.63
2018-09-08T20:06:47.997Z,148944.38
2018-09-08T20:09:19.294Z,148944.38
2018-09-08T20:11:50.195Z,148960.56
2018-09-08T20:14:22.025Z,148945.63
2018-09-08T20:16:52.359Z,148946.86
2018-09-08T20:19:22.634Z,148936.89
2018-09-08T20:21:52.590Z,148943.13
2018-09-08T20:26:52.443Z,148955.59
2018-09-08T20:29:22.690Z,148939.39
2018-09-08T20:31:55.756Z,148921.95
2018-09-08T20:34:25.917Z,148908.16
2018-09-08T20:36:56.192Z,148916.92
2018-09-08T20:39:26.419Z,148941.88
2018-09-08T20:41:56.558Z,148936.89
2018-09-08T20:44:26.688Z,148938.14
2018-09-08T20:46:57.704Z,148959.31
2018-09-08T20:49:28.028Z,148946.86
2018-09-08T20:51:58.582Z,148949.36
2018-09-08T20:54:28.875Z,148941.88
2018-09-08T20:56:59.817Z,148939.39
2018-09-08T20:59:30.740Z,148934.41
2018-09-08T21:02:01.500Z,148934.41
2018-09-08T21:04:31.688Z,148924.44
2018-09-08T21:07:02.088Z,148926.94
2018-09-08T21:09:32.320Z,148926.94
2018-09-08T21:12:02.533Z,148911.89
2018-09-08T21:14:32.534Z,148901.92
2018-09-08T21:17:05.076Z,148870.78
2018-09-08T21:19:35.195Z,148857.03
2018-09-08T21:22:05.736Z,148868.28
2018-09-08T21:24:36.571Z,148875.77
2018-09-08T21:27:06.829Z,148868.28
2018-09-08T21:29:37.652Z,148842.09
2018-09-08T21:32:07.623Z,148820.92
2018-09-08T21:34:37.568Z,148809.66
2018-09-08T21:37:08.161Z,148812.16
2018-09-08T21:39:38.386Z,148814.64
2018-09-08T21:42:12.067Z,148805.92
2018-09-08T21:44:44.262Z,148789.73
2018-09-08T21:47:14.317Z,148797.22
2018-09-08T21:49:44.816Z,148790.98
2018-09-08T21:52:15.021Z,148807.17
2018-09-08T21:54:45.025Z,148802.19
2018-09-08T21:57:15.416Z,148797.22
2018-09-08T21:59:45.591Z,148787.25
2018-09-08T22:02:15.784Z,148773.55
2018-09-08T22:04:45.744Z,148777.28
2018-09-08T22:07:15.950Z,148759.81
2018-09-08T22:09:46.104Z,148773.55
2018-09-08T22:12:16.735Z,148798.45
2018-09-08T22:14:47.020Z,148804.69
2018-09-08T22:17:17.116Z,148828.39
2018-09-08T22:19:47.239Z,148843.34
2018-09-08T22:22:17.469Z,148837.11
2018-09-08T22:24:47.792Z,148847.06
2018-09-08T22:27:17.918Z,148824.66
2018-09-08T22:29:48.072Z,148812.16
2018-09-08T22:32:18.283Z,148819.67
2018-09-08T22:34:48.468Z,148815.89
2018-09-08T22:37:18.417Z,148810.91
2018-09-08T22:39:48.784Z,148823.41
2018-09-08T22:42:20.194Z,148808.42
2018-09-08T22:44:50.925Z,148820.92
2018-09-08T22:47:21.192Z,148827.16
2018-09-08T22:49:51.392Z,148845.83
2018-09-08T22:52:22.988Z,148814.64
2018-09-08T22:54:53.203Z,148807.17
2018-09-08T22:57:23.532Z,148788.50
2018-09-08T22:59:53.631Z,148783.52
2018-09-08T23:02:24.418Z,148767.28
2018-09-08T23:04:55.673Z,148714.89
2018-09-08T23:07:26.180Z,148702.44
2018-09-08T23:09:56.461Z,148676.25
2018-09-08T23:12:27.147Z,148667.53
2018-09-08T23:15:00.118Z,148655.09
2018-09-08T23:17:30.334Z,148662.56
2018-09-08T23:20:00.787Z,148638.91
2018-09-08T23:22:31.630Z,148618.94
2018-09-08T23:25:03.348Z,148642.64
2018-09-08T23:27:33.656Z,148662.56
2018-09-08T23:30:03.962Z,148642.64
2018-09-08T23:32:34.178Z,148682.53
2018-09-08T23:35:05.438Z,148677.50
2018-09-08T23:37:35.722Z,148675.00
2018-09-08T23:40:06.070Z,148691.23
2018-09-08T23:42:36.284Z,148686.25
2018-09-08T23:45:08.752Z,148713.64
2018-09-08T23:47:39.149Z,148704.92
2018-09-08T23:50:10.529Z,148697.47
2018-09-08T23:52:40.996Z,148724.91
2018-09-08T23:55:12.568Z,148689.98
2018-09-08T23:57:43.257Z,148658.83
